createdAt,value
2018-07-06T00:02:33.583Z,1.17
2018-07-06T00:05:15.464Z,0.90
2018-07-06T00:07:55.360Z,0.98
2018-07-06T00:10:35.400Z,1.00
2018-07-06T00:13:15.366Z,0.80
2018-07-06T00:15:55.060Z,1.00
2018-07-06T00:18:34.981Z,0.90
2018-07-06T00:21:14.731Z,1.10
2018-07-06T00:23:54.439Z,1.15
2018-07-06T00:26:34.337Z,1.07
2018-07-06T00:29:14.586Z,1.00
2018-07-06T00:31:54.454Z,1.15
2018-07-06T00:34:35.216Z,1.25
2018-07-06T00:37:15.017Z,1.05
2018-07-06T00:39:54.920Z,1.20
2018-07-06T00:42:34.645Z,1.02
2018-07-06T00:45:14.399Z,1.22
2018-07-06T00:47:54.077Z,1.10
2018-07-06T00:50:33.963Z,1.27
2018-07-06T00:53:13.652Z,1.17
2018-07-06T00:55:53.476Z,1.30
2018-07-06T00:58:33.241Z,1.10
2018-07-06T01:01:12.885Z,1.22
2018-07-06T01:03:52.537Z,1.20
2018-07-06T01:06:32.447Z,1.00
2018-07-06T01:09:12.377Z,1.10
2018-07-06T01:11:52.426Z,1.20
2018-07-06T01:14:32.358Z,1.20
2018-07-06T01:17:16.244Z,1.20
2018-07-06T01:19:57.133Z,1.30
2018-07-06T01:22:36.769Z,1.20
2018-07-06T01:25:16.594Z,1.27
2018-07-06T01:30:54.691Z,1.02
2018-07-06T01:33:34.427Z,1.32
2018-07-06T01:36:14.125Z,1.30
2018-07-06T01:38:54.844Z,1.37
2018-07-06T01:41:34.523Z,1.40
2018-07-06T01:44:14.473Z,1.77
2018-07-06T01:46:54.460Z,1.50
2018-07-06T01:49:34.243Z,1.65
2018-07-06T01:52:13.986Z,1.80
2018-07-06T01:54:53.650Z,1.77
2018-07-06T01:57:33.506Z,1.72
2018-07-06T02:00:13.075Z,2.00
2018-07-06T02:02:52.686Z,2.02
2018-07-06T02:05:32.459Z,1.90
2018-07-06T02:08:12.401Z,1.90
2018-07-06T02:10:52.180Z,2.00
2018-07-06T02:13:31.796Z,2.08
2018-07-06T02:16:13.344Z,1.82
2018-07-06T02:18:53.102Z,2.20
2018-07-06T02:21:32.818Z,2.20
2018-07-06T02:24:12.417Z,2.17
2018-07-06T02:26:52.199Z,2.30
2018-07-06T02:29:31.913Z,2.43
2018-07-06T02:32:11.565Z,2.15
2018-07-06T02:34:51.143Z,2.30
2018-07-06T02:37:30.858Z,2.30
2018-07-06T02:40:11.750Z,2.30
2018-07-06T02:42:52.649Z,2.35
2018-07-06T02:45:33.371Z,2.62
2018-07-06T02:48:13.753Z,2.40
2018-07-06T02:50:53.577Z,2.67
2018-07-06T02:53:33.445Z,1.90
2018-07-06T02:56:13.218Z,2.20
2018-07-06T02:58:53.564Z,2.40
2018-07-06T03:01:33.419Z,2.10
2018-07-06T03:04:13.158Z,2.15
2018-07-06T03:06:52.903Z,2.10
2018-07-06T03:09:32.745Z,1.95
2018-07-06T03:12:12.449Z,2.00
2018-07-06T03:14:52.177Z,2.30
2018-07-06T03:17:31.962Z,1.87
2018-07-06T03:20:11.532Z,1.72
2018-07-06T03:22:51.406Z,1.62
2018-07-06T03:25:31.322Z,1.85
2018-07-06T03:28:05.335Z,1.80
2018-07-06T03:30:45.121Z,1.92
2018-07-06T03:33:25.154Z,2.37
2018-07-06T03:36:05.009Z,2.15
2018-07-06T03:38:44.909Z,2.67
2018-07-06T03:41:24.804Z,2.27
2018-07-06T03:44:04.712Z,2.10
2018-07-06T03:49:17.845Z,1.72
2018-07-06T03:51:57.548Z,2.17
2018-07-06T03:54:37.553Z,1.80
2018-07-06T03:57:17.203Z,2.22
2018-07-06T03:59:56.938Z,1.80
2018-07-06T04:02:36.578Z,1.80
2018-07-06T04:05:19.480Z,1.95
2018-07-06T04:07:59.228Z,2.25
2018-07-06T04:10:38.829Z,1.90
2018-07-06T04:13:18.727Z,1.57
2018-07-06T04:15:58.444Z,1.80
2018-07-06T04:18:38.259Z,1.92
2018-07-06T04:21:17.879Z,1.80
2018-07-06T04:23:57.690Z,2.02
2018-07-06T04:26:37.379Z,1.77
2018-07-06T04:29:17.052Z,2.10
2018-07-06T04:31:56.813Z,1.70
2018-07-06T04:34:37.580Z,1.80
2018-07-06T04:37:17.271Z,2.12
2018-07-06T04:39:56.767Z,1.53
2018-07-06T04:42:37.081Z,2.22
2018-07-06T04:45:16.855Z,1.70
2018-07-06T04:47:56.834Z,2.05
2018-07-06T04:50:36.666Z,1.72
2018-07-06T04:53:16.350Z,1.90
2018-07-06T04:55:56.283Z,1.80
2018-07-06T04:58:36.497Z,1.65
2018-07-06T05:01:18.444Z,1.60
2018-07-06T05:03:59.412Z,1.50
2018-07-06T05:06:39.109Z,1.60
2018-07-06T05:09:19.102Z,2.00
2018-07-06T05:11:58.742Z,1.92
2018-07-06T05:14:38.517Z,1.60
2018-07-06T05:17:18.395Z,1.83
2018-07-06T05:19:52.121Z,2.05
2018-07-06T05:22:31.940Z,2.00
2018-07-06T05:25:12.389Z,1.85
2018-07-06T05:27:52.322Z,1.60
2018-07-06T05:30:32.034Z,1.60
2018-07-06T05:33:11.736Z,1.40
2018-07-06T05:35:51.605Z,2.10
2018-07-06T05:38:31.991Z,2.25
2018-07-06T05:41:12.052Z,2.60
2018-07-06T05:43:51.978Z,2.00
2018-07-06T05:46:31.858Z,1.90
2018-07-06T05:49:11.748Z,1.98
2018-07-06T05:51:51.589Z,2.10
2018-07-06T05:54:31.425Z,1.93
2018-07-06T05:57:11.163Z,2.30
2018-07-06T05:59:50.979Z,1.95
2018-07-06T06:02:30.752Z,1.98
2018-07-06T06:05:10.584Z,2.15
2018-07-06T06:07:38.111Z,2.60
2018-07-06T06:10:06.812Z,16.87
2018-07-06T06:12:35.523Z,246.60
2018-07-06T06:15:05.732Z,451.10
2018-07-06T06:17:34.637Z,585.60
2018-07-06T06:20:03.438Z,722.15
2018-07-06T06:22:35.216Z,785.50
2018-07-06T06:25:03.984Z,838.57
2018-07-06T06:27:32.698Z,904.97
2018-07-06T06:30:13.782Z,907.07
2018-07-06T06:32:42.536Z,819.47
2018-07-06T06:35:11.303Z,828.92
2018-07-06T06:37:40.503Z,839.10
2018-07-06T06:40:09.169Z,787.12
2018-07-06T06:42:38.878Z,789.87
2018-07-06T06:45:07.621Z,705.87
2018-07-06T06:47:37.068Z,706.92
2018-07-06T06:50:05.806Z,668.60
2018-07-06T06:52:34.781Z,651.17
2018-07-06T06:55:04.745Z,623.53
2018-07-06T06:57:33.797Z,589.50
2018-07-06T07:00:03.819Z,623.97
2018-07-06T07:02:32.573Z,587.60
2018-07-06T07:05:01.408Z,940.32
2018-07-06T07:07:30.547Z,953.10
2018-07-06T07:09:59.213Z,888.63
2018-07-06T07:12:28.075Z,786.80
2018-07-06T07:14:57.038Z,724.90
2018-07-06T07:17:25.839Z,588.12
2018-07-06T07:19:55.064Z,492.98
2018-07-06T07:22:25.495Z,489.17
2018-07-06T07:24:54.417Z,448.28
2018-07-06T07:27:23.199Z,364.90
2018-07-06T07:29:52.056Z,348.35
2018-07-06T07:32:21.392Z,336.77
2018-07-06T07:34:50.138Z,335.13
2018-07-06T07:37:18.993Z,408.17
2018-07-06T07:39:48.961Z,325.93
2018-07-06T07:42:17.771Z,314.72
2018-07-06T07:44:46.599Z,253.10
2018-07-06T07:47:15.580Z,194.28
2018-07-06T07:49:44.404Z,151.27
2018-07-06T07:52:24.347Z,162.60
2018-07-06T07:54:55.111Z,168.00
2018-07-06T07:57:24.213Z,137.40
2018-07-06T07:59:53.765Z,130.37
2018-07-06T08:02:22.555Z,98.22
2018-07-06T08:04:52.024Z,81.37
2018-07-06T08:07:21.019Z,87.47
2018-07-06T08:09:50.166Z,77.67
2018-07-06T08:12:19.854Z,47.43
2018-07-06T08:14:48.759Z,43.68
2018-07-06T08:17:17.603Z,36.67
2018-07-06T08:19:46.331Z,49.15
2018-07-06T08:22:15.124Z,42.70
2018-07-06T08:24:43.934Z,207.75
2018-07-06T08:27:12.808Z,101.33
2018-07-06T08:29:41.675Z,61.30
2018-07-06T08:32:10.514Z,32.53
2018-07-06T08:34:50.530Z,17.80
2018-07-06T08:37:27.181Z,10.18
2018-07-06T08:39:57.904Z,7.75
2018-07-06T08:42:27.981Z,4.00
2018-07-06T08:44:57.633Z,3.22
2018-07-06T08:47:26.584Z,3.17
2018-07-06T08:49:56.298Z,4.20
2018-07-06T08:52:25.124Z,4.25
2018-07-06T08:54:54.028Z,2.87
2018-07-06T08:57:24.108Z,2.80
2018-07-06T08:59:53.061Z,3.10
2018-07-06T09:02:22.353Z,421.07
2018-07-06T09:04:52.097Z,303.60
2018-07-06T09:07:20.901Z,226.50
2018-07-06T09:09:50.224Z,154.05
2018-07-06T09:12:19.968Z,85.35
2018-07-06T09:14:48.760Z,24.75
2018-07-06T09:17:18.648Z,12.60
2018-07-06T09:19:48.007Z,3.35
2018-07-06T09:22:17.264Z,3.20
2018-07-06T09:24:47.155Z,2.98
2018-07-06T09:27:15.974Z,2.77
2018-07-06T09:29:44.881Z,3.02
2018-07-06T09:32:13.713Z,2.75
2018-07-06T09:34:42.778Z,2.65
2018-07-06T09:37:11.638Z,3.27
2018-07-06T09:39:41.442Z,2.83
2018-07-06T09:42:10.355Z,3.00
2018-07-06T09:44:40.271Z,2.67
2018-07-06T09:47:09.059Z,2.40
2018-07-06T09:49:37.786Z,2.50
2018-07-06T09:52:06.648Z,2.17
2018-07-06T09:54:36.395Z,2.55
2018-07-06T09:57:05.182Z,2.35
2018-07-06T09:59:33.870Z,2.40
2018-07-06T10:02:02.695Z,11.18
2018-07-06T10:04:31.467Z,9.10
2018-07-06T10:07:00.246Z,16.37
2018-07-06T10:09:29.555Z,946.60
2018-07-06T10:11:58.401Z,990.40
2018-07-06T10:14:27.185Z,999.90
2018-07-06T10:16:57.179Z,984.50
2018-07-06T10:19:27.019Z,863.27
2018-07-06T10:21:55.905Z,655.73
2018-07-06T10:24:25.898Z,694.40
2018-07-06T10:26:54.707Z,479.65
2018-07-06T10:29:36.297Z,999.90
2018-07-06T10:32:23.844Z,836.00
2018-07-06T10:34:53.767Z,533.10
2018-07-06T10:37:22.734Z,376.73
2018-07-06T10:39:52.021Z,251.40
2018-07-06T10:42:23.627Z,87.75
2018-07-06T10:44:53.064Z,17.80
2018-07-06T10:47:21.789Z,4.17
2018-07-06T10:49:50.514Z,1.90
2018-07-06T10:52:19.271Z,2.20
2018-07-06T10:54:48.302Z,1.90
2018-07-06T10:57:17.033Z,1.60
2018-07-06T10:59:46.847Z,1.47
2018-07-06T11:02:15.495Z,1.60
2018-07-06T11:04:44.297Z,1.57
2018-07-06T11:07:12.939Z,1.35
2018-07-06T11:09:41.747Z,1.40
2018-07-06T11:12:10.447Z,1.02
2018-07-06T11:14:40.208Z,0.98
2018-07-06T11:17:08.922Z,1.10
2018-07-06T11:19:38.700Z,1.43
2018-07-06T11:22:07.382Z,1.07
2018-07-06T11:24:38.104Z,1.02
2018-07-06T11:27:06.887Z,0.80
2018-07-06T11:29:35.570Z,0.88
2018-07-06T11:32:04.355Z,1.03
2018-07-06T11:34:32.981Z,1.00
2018-07-06T11:37:01.677Z,0.90
2018-07-06T11:39:31.082Z,0.93
2018-07-06T11:41:59.778Z,1.00
2018-07-06T11:44:29.453Z,1.00
2018-07-06T11:46:58.165Z,1.17
2018-07-06T11:49:26.911Z,1.10
2018-07-06T11:51:55.673Z,1.32
2018-07-06T11:54:26.347Z,1.40
2018-07-06T11:56:55.044Z,1.25
2018-07-06T11:59:24.909Z,1.30
2018-07-06T12:01:53.617Z,1.50
2018-07-06T12:04:22.427Z,1.67
2018-07-06T12:06:51.029Z,1.65
2018-07-06T12:09:19.759Z,1.40
2018-07-06T12:11:48.598Z,1.20
2018-07-06T12:14:17.265Z,1.40
2018-07-06T12:16:45.976Z,1.60
2018-07-06T12:19:14.745Z,1.00
2018-07-06T12:21:43.416Z,1.30
2018-07-06T12:24:12.106Z,1.80
2018-07-06T12:26:41.001Z,1.50
2018-07-06T12:29:09.780Z,1.45
2018-07-06T12:31:38.376Z,1.50
2018-07-06T12:34:07.149Z,1.77
2018-07-06T12:36:35.931Z,1.40
2018-07-06T12:39:05.123Z,1.60
2018-07-06T12:41:34.905Z,1.70
2018-07-06T12:44:03.679Z,1.90
2018-07-06T12:46:32.752Z,2.17
2018-07-06T12:49:01.799Z,2.30
2018-07-06T12:51:30.514Z,2.27
2018-07-06T12:54:00.023Z,2.25
2018-07-06T12:56:28.941Z,2.52
2018-07-06T12:58:57.575Z,2.90
2018-07-06T13:01:28.278Z,2.80
2018-07-06T13:03:59.351Z,2.98
2018-07-06T13:06:29.060Z,2.70
2018-07-06T13:08:59.630Z,3.00
2018-07-06T13:11:28.616Z,2.60
2018-07-06T13:13:58.428Z,2.95
2018-07-06T13:16:27.115Z,2.70
2018-07-06T13:18:59.665Z,3.05
2018-07-06T13:21:28.346Z,3.30
2018-07-06T13:23:57.001Z,3.40
2018-07-06T13:26:25.688Z,3.57
2018-07-06T13:28:55.286Z,3.02
2018-07-06T13:31:24.973Z,3.23
2018-07-06T13:33:53.647Z,3.22
2018-07-06T13:36:22.327Z,3.98
2018-07-06T13:38:51.119Z,4.47
2018-07-06T13:41:19.792Z,3.87
2018-07-06T13:43:48.430Z,4.20
2018-07-06T13:46:17.108Z,4.75
2018-07-06T13:48:45.826Z,4.40
2018-07-06T13:51:14.496Z,4.72
2018-07-06T13:53:43.197Z,4.62
2018-07-06T13:56:11.945Z,4.55
2018-07-06T13:58:42.584Z,4.28
2018-07-06T14:01:11.289Z,4.45
2018-07-06T14:03:40.006Z,4.30
2018-07-06T14:06:08.668Z,4.50
2018-07-06T14:08:39.366Z,4.30
2018-07-06T14:11:08.078Z,4.00
2018-07-06T14:13:36.841Z,4.08
2018-07-06T14:16:05.622Z,3.40
2018-07-06T14:18:34.415Z,3.12
2018-07-06T14:21:03.077Z,3.30
2018-07-06T14:23:31.702Z,3.00
2018-07-06T14:26:01.357Z,3.08
2018-07-06T14:28:30.022Z,3.52
2018-07-06T14:30:58.703Z,3.30
2018-07-06T14:33:27.422Z,3.25
2018-07-06T14:36:00.292Z,3.40
2018-07-06T14:38:28.996Z,3.10
2018-07-06T14:40:58.744Z,2.87
2018-07-06T14:43:28.361Z,3.00
2018-07-06T14:45:56.735Z,2.95
2018-07-06T14:48:25.424Z,3.10
2018-07-06T14:50:54.244Z,3.67
2018-07-06T14:53:24.660Z,3.37
2018-07-06T14:55:53.306Z,3.25
2018-07-06T14:58:22.971Z,2.37
2018-07-06T15:00:51.713Z,3.00
2018-07-06T15:03:20.431Z,2.90
2018-07-06T15:05:50.070Z,2.90
2018-07-06T15:08:18.373Z,2.50
2018-07-06T15:10:47.109Z,2.40
2018-07-06T15:13:15.806Z,2.10
2018-07-06T15:15:45.496Z,2.20
2018-07-06T15:18:14.994Z,2.03
2018-07-06T15:20:43.323Z,2.30
2018-07-06T15:23:12.121Z,2.37
2018-07-06T15:25:40.735Z,2.15
2018-07-06T15:28:10.365Z,2.42
2018-07-06T15:30:41.041Z,2.43
2018-07-06T15:33:09.776Z,2.50
2018-07-06T15:35:38.363Z,1.90
2018-07-06T15:38:07.058Z,2.22
2018-07-06T15:40:35.734Z,2.53
2018-07-06T15:43:05.393Z,2.20
2018-07-06T15:45:34.071Z,2.07
2018-07-06T15:48:03.737Z,2.20
2018-07-06T15:50:32.359Z,2.37
2018-07-06T15:53:01.000Z,3.00
2018-07-06T15:55:29.592Z,2.80
2018-07-06T15:57:59.225Z,2.90
2018-07-06T16:00:27.874Z,3.62
2018-07-06T16:02:57.427Z,3.60
2018-07-06T16:05:26.125Z,4.15
2018-07-06T16:07:55.259Z,4.17
2018-07-06T16:10:23.912Z,3.80
2018-07-06T16:12:52.568Z,3.77
2018-07-06T16:15:21.228Z,3.50
2018-07-06T16:17:49.884Z,3.60
2018-07-06T16:20:18.561Z,3.70
2018-07-06T16:22:46.798Z,4.10
2018-07-06T16:25:15.386Z,3.55
2018-07-06T16:27:44.004Z,3.02
2018-07-06T16:30:12.655Z,3.65
2018-07-06T16:32:41.320Z,3.50
2018-07-06T16:35:10.963Z,3.93
2018-07-06T16:37:40.627Z,4.53
2018-07-06T16:40:09.312Z,4.00
2018-07-06T16:42:38.341Z,4.50
2018-07-06T16:45:07.966Z,4.33
2018-07-06T16:47:36.623Z,4.90
2018-07-06T16:50:05.293Z,4.35
2018-07-06T16:52:34.025Z,5.03
2018-07-06T16:55:02.697Z,4.95
2018-07-06T16:57:32.435Z,4.87
2018-07-06T17:00:01.061Z,4.75
2018-07-06T17:02:30.660Z,4.50
2018-07-06T17:04:59.311Z,4.75
2018-07-06T17:07:29.973Z,4.45
2018-07-06T17:09:58.657Z,3.73
2018-07-06T17:12:27.267Z,3.60
2018-07-06T17:14:55.923Z,3.70
2018-07-06T17:17:24.706Z,4.00
2018-07-06T17:19:53.386Z,4.37
2018-07-06T17:22:23.113Z,4.50
2018-07-06T17:24:51.784Z,4.85
2018-07-06T17:27:20.429Z,4.90
2018-07-06T17:29:50.127Z,4.22
2018-07-06T17:32:18.727Z,4.60
2018-07-06T17:34:47.417Z,6.37
2018-07-06T17:37:16.221Z,6.90
2018-07-06T17:39:44.922Z,7.97
2018-07-06T17:42:14.640Z,9.08
2018-07-06T17:44:45.699Z,8.45
2018-07-06T17:47:14.439Z,8.83
2018-07-06T17:49:43.167Z,8.90
2018-07-06T17:52:12.928Z,8.68
2018-07-06T17:54:41.701Z,8.63
2018-07-06T17:57:10.349Z,6.78
2018-07-06T17:59:39.281Z,7.40
2018-07-06T18:02:07.939Z,10.75
2018-07-06T18:04:36.612Z,12.40
2018-07-06T18:07:05.264Z,10.65
2018-07-06T18:09:33.912Z,11.03
2018-07-06T18:12:02.575Z,10.90
2018-07-06T18:14:31.599Z,13.03
2018-07-06T18:17:01.353Z,10.88
2018-07-06T18:19:30.067Z,11.03
2018-07-06T18:21:58.855Z,10.40
2018-07-06T18:24:27.520Z,9.85
2018-07-06T18:26:57.162Z,8.38
2018-07-06T18:29:26.038Z,10.23
2018-07-06T18:31:54.702Z,8.87
2018-07-06T18:34:24.398Z,8.20
2018-07-06T18:36:53.055Z,8.45
2018-07-06T18:39:21.851Z,8.83
2018-07-06T18:41:50.703Z,8.20
2018-07-06T18:44:19.401Z,7.47
2018-07-06T18:46:48.496Z,6.75
2018-07-06T18:49:17.180Z,6.45
2018-07-06T18:51:45.882Z,5.78
2018-07-06T18:54:14.494Z,5.30
2018-07-06T18:56:43.798Z,4.30
2018-07-06T18:59:13.620Z,4.47
2018-07-06T19:01:42.332Z,4.03
2018-07-06T19:04:11.001Z,4.30
2018-07-06T19:06:39.656Z,4.70
2018-07-06T19:09:09.344Z,4.10
2018-07-06T19:11:38.986Z,3.85
2018-07-06T19:14:07.642Z,4.22
2018-07-06T19:16:36.589Z,3.77
2018-07-06T19:19:05.363Z,4.15
2018-07-06T19:21:34.225Z,4.50
2018-07-06T19:24:03.022Z,4.20
2018-07-06T19:26:32.650Z,4.60
2018-07-06T19:29:01.338Z,5.05
2018-07-06T19:31:30.162Z,5.50
2018-07-06T19:33:58.838Z,4.72
2018-07-06T19:36:27.541Z,5.08
2018-07-06T19:38:56.250Z,4.62
2018-07-06T19:41:25.791Z,5.50
2018-07-06T19:43:54.546Z,5.20
2018-07-06T19:46:23.171Z,5.70
2018-07-06T19:48:51.828Z,5.58
2018-07-06T19:51:21.520Z,5.22
2018-07-06T19:53:50.218Z,5.72
2018-07-06T19:56:19.846Z,5.42
2018-07-06T19:58:49.523Z,5.83
2018-07-06T20:01:18.159Z,6.53
2018-07-06T20:03:46.779Z,6.28
2018-07-06T20:06:15.427Z,5.65
2018-07-06T20:08:46.048Z,5.50
2018-07-06T20:11:15.766Z,6.03
2018-07-06T20:13:45.542Z,5.97
2018-07-06T20:16:14.434Z,5.80
2018-07-06T20:18:43.095Z,5.77
2018-07-06T20:21:11.773Z,5.78
2018-07-06T20:23:40.407Z,5.42
2018-07-06T20:26:09.093Z,6.73
2018-07-06T20:28:41.039Z,6.50
2018-07-06T20:31:09.676Z,7.15
2018-07-06T20:33:40.361Z,7.40
2018-07-06T20:36:09.079Z,6.07
2018-07-06T20:38:37.791Z,5.40
2018-07-06T20:41:06.527Z,5.20
2018-07-06T20:43:36.225Z,4.37
2018-07-06T20:46:05.122Z,3.97
2018-07-06T20:48:33.799Z,4.50
2018-07-06T20:51:03.384Z,3.98
2018-07-06T20:53:33.443Z,4.95
2018-07-06T20:56:03.143Z,4.50
2018-07-06T20:58:37.139Z,4.80
2018-07-06T21:01:05.835Z,4.70
2018-07-06T21:03:34.431Z,4.67
2018-07-06T21:06:04.109Z,4.70
2018-07-06T21:08:32.742Z,5.60
2018-07-06T21:11:01.366Z,5.33
2018-07-06T21:13:31.020Z,5.70
2018-07-06T21:15:59.744Z,5.53
2018-07-06T21:18:28.409Z,5.85
2018-07-06T21:20:58.221Z,5.65
2018-07-06T21:23:26.885Z,5.37
2018-07-06T21:25:56.518Z,5.30
2018-07-06T21:28:26.200Z,5.15
2018-07-06T21:30:54.956Z,5.62
2018-07-06T21:33:23.576Z,6.47
2018-07-06T21:35:53.267Z,4.62
2018-07-06T21:38:21.952Z,4.90
2018-07-06T21:40:51.633Z,5.53
2018-07-06T21:43:21.327Z,5.75
2018-07-06T21:45:50.039Z,5.75
2018-07-06T21:48:19.666Z,6.53
2018-07-06T21:50:48.530Z,6.37
2018-07-06T21:53:17.154Z,6.00
2018-07-06T21:55:45.828Z,6.12
2018-07-06T21:58:14.485Z,6.50
2018-07-06T22:00:43.219Z,6.85
2018-07-06T22:03:13.139Z,7.35
2018-07-06T22:05:42.680Z,7.05
2018-07-06T22:08:13.659Z,7.33
2018-07-06T22:10:42.314Z,7.22
2018-07-06T22:13:10.936Z,7.12
2018-07-06T22:15:44.515Z,7.60
2018-07-06T22:18:17.686Z,8.03
2018-07-06T22:20:47.411Z,7.00
2018-07-06T22:23:16.620Z,7.22
2018-07-06T22:25:45.327Z,6.85
2018-07-06T22:28:14.016Z,6.40
2018-07-06T22:30:42.775Z,6.55
2018-07-06T22:33:11.445Z,6.30
2018-07-06T22:35:40.169Z,5.78
2018-07-06T22:38:09.970Z,6.30
2018-07-06T22:40:38.822Z,5.70
2018-07-06T22:43:07.656Z,6.35
2018-07-06T22:45:38.349Z,6.28
2018-07-06T22:48:08.171Z,5.90
2018-07-06T22:50:36.878Z,5.83
2018-07-06T22:53:05.852Z,5.97
2018-07-06T22:55:34.557Z,5.65
2018-07-06T22:58:03.257Z,4.75
2018-07-06T23:00:32.990Z,5.15
2018-07-06T23:03:04.064Z,5.23
2018-07-06T23:05:33.870Z,5.87
2018-07-06T23:08:02.547Z,5.58
2018-07-06T23:10:33.437Z,6.03
2018-07-06T23:13:02.117Z,6.42
2018-07-06T23:15:31.856Z,7.85
2018-07-06T23:18:00.622Z,7.03
2018-07-06T23:20:29.904Z,7.17
2018-07-06T23:23:02.844Z,7.53
2018-07-06T23:25:33.089Z,7.87
2018-07-06T23:28:01.751Z,7.22
2018-07-06T23:30:30.451Z,7.17
2018-07-06T23:33:00.287Z,7.03
2018-07-06T23:35:30.054Z,6.65
2018-07-06T23:37:58.461Z,6.60
2018-07-06T23:40:28.220Z,7.22
2018-07-06T23:43:00.768Z,6.90
2018-07-06T23:45:29.800Z,7.37
2018-07-06T23:47:58.438Z,8.07
2018-07-06T23:50:27.189Z,6.90
2018-07-06T23:52:55.857Z,7.30
2018-07-06T23:55:24.505Z,7.25
2018-07-06T23:57:53.171Z,6.87
